Port Sulphur, Louisiana
Current Conditions -  °F | °C
As of 6:15 AM on Monday 24 Nov 2014 (Local Time) from K1B7 Reporting Station
Haze Haze  
Wind Chill: 21°   Ceiling: Unl
Heat Index: 21°   Visibility: 6mi
Dew Point: 20°   Wind: 12mph
Humidity: 94%   Direction: 300°WNW
Pressure: 29.8"   Gusts: NA
Location:  29.49°N, 89.71°W
Report Text: K1B7 241215Z 30010KT 6SM BR SKC 21/20 A2980
Loading
Personal Weather Stations






























Interactive Weather Map New forecast layout! Learn more

10-Day Weather Forecast

Advertisements
Track Severe Weather on mobile